VLG3HK GCLP-LEBL
Flight info
| Callsign | VLG3HK |
|---|---|
| Flight time | N/A |
| Altitude | 36000 |
| Route | KORAL UG5 SONSO DCT NIRAL UN871 OSDAM UM985 BARPA DCT XAVIR DCT PIMOS DCT RIXUR DCT PEPAS DCT ARPEX DCT KOSEL DCT BUDIT DCT ETURA DCT TOSTO DCT OLPOS M445 BEGOX DCT VLC L34 CASIM DCT MATEX |
| Aircraft | A320/M-SDE3FGHIRWY/LB1 |
Departure
| Time | 2026-04-29 13:35 |
|---|---|
| Airport | Gran Canaria Airport (GCLP) |
Arrival
| Time | N/A |
|---|---|
| Airport | Josep Tarradellas Barcelona-El Prat Airport (LEBL) |
| Time | Latitude | Longitude | Altitude | Speed | Heading |
|---|---|---|---|---|---|
| 2026-04-29 13:00 | 27.93858 | -15.38815 | 121 ft | 0 kts | 291° |
| 2026-04-29 13:22 | 27.93855 | -15.38806 | 120 ft | 2 kts | 292° |
| 2026-04-29 13:22 | 27.93850 | -15.38790 | 119 ft | 2 kts | 291° |
| 2026-04-29 13:23 | 27.93846 | -15.38780 | 118 ft | 2 kts | 291° |
| 2026-04-29 13:23 | 27.93843 | -15.38763 | 117 ft | 2 kts | 266° |
| 2026-04-29 13:23 | 27.93846 | -15.38746 | 116 ft | 2 kts | 248° |
| 2026-04-29 13:23 | 27.93854 | -15.38731 | 115 ft | 2 kts | 230° |
| 2026-04-29 13:24 | 27.93865 | -15.38720 | 115 ft | 2 kts | 212° |
| 2026-04-29 13:24 | 27.93872 | -15.38716 | 114 ft | 1 kts | 201° |
| 2026-04-29 13:24 | 27.93877 | -15.38714 | 114 ft | 0 kts | 201° |
| 2026-04-29 13:26 | 27.93876 | -15.38714 | 114 ft | 0 kts | 201° |
| 2026-04-29 13:26 | 27.93870 | -15.38717 | 114 ft | 1 kts | 201° |
| 2026-04-29 13:26 | 27.93855 | -15.38723 | 115 ft | 3 kts | 201° |
| 2026-04-29 13:27 | 27.93817 | -15.38740 | 116 ft | 7 kts | 201° |
| 2026-04-29 13:27 | 27.93756 | -15.38765 | 118 ft | 11 kts | 201° |
| 2026-04-29 13:27 | 27.93672 | -15.38803 | 119 ft | 14 kts | 201° |
| 2026-04-29 13:27 | 27.93578 | -15.38844 | 119 ft | 14 kts | 200° |
| 2026-04-29 13:28 | 27.93497 | -15.38875 | 118 ft | 7 kts | 195° |
| 2026-04-29 13:28 | 27.93451 | -15.38854 | 117 ft | 9 kts | 127° |
| 2026-04-29 13:28 | 27.93419 | -15.38777 | 110 ft | 6 kts | 128° |
| 2026-04-29 13:28 | 27.93359 | -15.38778 | 105 ft | 12 kts | 198° |
| 2026-04-29 13:29 | 27.93254 | -15.38822 | 98 ft | 18 kts | 201° |
| 2026-04-29 13:29 | 27.93135 | -15.38879 | 98 ft | 18 kts | 207° |
| 2026-04-29 13:29 | 27.93009 | -15.38938 | 94 ft | 20 kts | 201° |
| 2026-04-29 13:29 | 27.92875 | -15.38997 | 95 ft | 21 kts | 201° |
| 2026-04-29 13:30 | 27.92737 | -15.39058 | 98 ft | 21 kts | 201° |
| 2026-04-29 13:30 | 27.92600 | -15.39118 | 103 ft | 20 kts | 202° |
| 2026-04-29 13:30 | 27.92475 | -15.39174 | 110 ft | 17 kts | 201° |
| 2026-04-29 13:30 | 27.92362 | -15.39223 | 113 ft | 18 kts | 201° |
| 2026-04-29 13:31 | 27.92240 | -15.39277 | 116 ft | 18 kts | 201° |
| 2026-04-29 13:31 | 27.92138 | -15.39310 | 117 ft | 15 kts | 186° |
| 2026-04-29 13:31 | 27.92040 | -15.39303 | 114 ft | 8 kts | 175° |
| 2026-04-29 13:31 | 27.92027 | -15.39302 | 113 ft | 0 kts | 176° |
| 2026-04-29 13:33 | 27.92018 | -15.39302 | 113 ft | 2 kts | 176° |
| 2026-04-29 13:33 | 27.91987 | -15.39299 | 113 ft | 5 kts | 176° |
| 2026-04-29 13:33 | 27.91943 | -15.39287 | 112 ft | 7 kts | 150° |
| 2026-04-29 13:33 | 27.91914 | -15.39237 | 111 ft | 4 kts | 76° |
| 2026-04-29 13:34 | 27.91937 | -15.39213 | 110 ft | 3 kts | 26° |
| 2026-04-29 13:34 | 27.91944 | -15.39210 | 110 ft | 2 kts | 25° |
| 2026-04-29 13:34 | 27.92068 | -15.39151 | 104 ft | 56 kts | 21° |
| 2026-04-29 13:34 | 27.92701 | -15.38872 | 85 ft | 135 kts | 22° |
| 2026-04-29 13:35 | 27.93760 | -15.38411 | 292 ft | 178 kts | 22° |
| 2026-04-29 13:35 | 27.94908 | -15.37930 | 1165 ft | 177 kts | 21° |
| 2026-04-29 13:35 | 27.96061 | -15.37437 | 1870 ft | 179 kts | 22° |
| 2026-04-29 13:35 | 27.97299 | -15.36873 | 2338 ft | 193 kts | 22° |
| 2026-04-29 13:36 | 27.98683 | -15.36264 | 2788 ft | 211 kts | 21° |
| 2026-04-29 13:36 | 28.00216 | -15.35603 | 3181 ft | 234 kts | 20° |
| 2026-04-29 13:36 | 28.01893 | -15.34882 | 3687 ft | 253 kts | 20° |
| 2026-04-29 13:36 | 28.03692 | -15.34108 | 3962 ft | 264 kts | 20° |
| 2026-04-29 13:37 | 28.05476 | -15.33338 | 3973 ft | 264 kts | 20° |
| 2026-04-29 13:37 | 28.07270 | -15.32560 | 3976 ft | 264 kts | 21° |
| 2026-04-29 13:37 | 28.09010 | -15.31804 | 3979 ft | 263 kts | 21° |
| 2026-04-29 13:37 | 28.10767 | -15.31038 | 3972 ft | 263 kts | 21° |
| 2026-04-29 13:38 | 28.12525 | -15.30274 | 3968 ft | 264 kts | 21° |
| 2026-04-29 13:38 | 28.14218 | -15.29245 | 3960 ft | 264 kts | 39° |
| 2026-04-29 13:38 | 28.15520 | -15.27557 | 4175 ft | 273 kts | 56° |
| 2026-04-29 13:38 | 28.16587 | -15.25723 | 5014 ft | 275 kts | 57° |
| 2026-04-29 13:39 | 28.17680 | -15.23813 | 5855 ft | 278 kts | 57° |
| 2026-04-29 13:39 | 28.18795 | -15.21873 | 6626 ft | 284 kts | 57° |
| 2026-04-29 13:39 | 28.19918 | -15.19930 | 7397 ft | 288 kts | 57° |
| 2026-04-29 13:39 | 28.21076 | -15.17935 | 8171 ft | 293 kts | 57° |
| 2026-04-29 13:40 | 28.22239 | -15.15933 | 8913 ft | 297 kts | 57° |
| 2026-04-29 13:40 | 28.23407 | -15.13928 | 9625 ft | 302 kts | 56° |
| 2026-04-29 13:40 | 28.24571 | -15.11930 | 10302 ft | 307 kts | 56° |
| 2026-04-29 13:40 | 28.25801 | -15.09821 | 10732 ft | 322 kts | 56° |
| 2026-04-29 13:41 | 28.27128 | -15.07545 | 11065 ft | 340 kts | 56° |
| 2026-04-29 13:41 | 28.28530 | -15.05139 | 11569 ft | 350 kts | 56° |
| 2026-04-29 13:41 | 28.29903 | -15.02781 | 12242 ft | 354 kts | 56° |
| 2026-04-29 13:41 | 28.31264 | -15.00441 | 12880 ft | 358 kts | 56° |
| 2026-04-29 13:42 | 28.32636 | -14.98081 | 13477 ft | 362 kts | 56° |
| 2026-04-29 13:42 | 28.34032 | -14.95680 | 14071 ft | 366 kts | 56° |
| 2026-04-29 13:42 | 28.35436 | -14.93264 | 14639 ft | 371 kts | 56° |
| 2026-04-29 13:42 | 28.36859 | -14.90813 | 15203 ft | 375 kts | 56° |
| 2026-04-29 13:43 | 28.38308 | -14.88315 | 15755 ft | 379 kts | 56° |
| 2026-04-29 13:43 | 28.39757 | -14.85817 | 16290 ft | 383 kts | 56° |
| 2026-04-29 13:43 | 28.41232 | -14.83273 | 16832 ft | 386 kts | 56° |
| 2026-04-29 13:43 | 28.42710 | -14.80722 | 17352 ft | 390 kts | 56° |
| 2026-04-29 13:44 | 28.44211 | -14.78131 | 17839 ft | 394 kts | 56° |
| 2026-04-29 13:44 | 28.45738 | -14.75490 | 18323 ft | 398 kts | 56° |
| 2026-04-29 13:44 | 28.47250 | -14.72874 | 18804 ft | 402 kts | 56° |
| 2026-04-29 13:44 | 28.48795 | -14.70200 | 19297 ft | 404 kts | 56° |
| 2026-04-29 13:45 | 28.50345 | -14.67516 | 19767 ft | 407 kts | 57° |
| 2026-04-29 13:45 | 28.51891 | -14.64836 | 20219 ft | 411 kts | 56° |
| 2026-04-29 13:45 | 28.53460 | -14.62115 | 20682 ft | 413 kts | 57° |
| 2026-04-29 13:45 | 28.55049 | -14.59358 | 21136 ft | 416 kts | 57° |
| 2026-04-29 13:46 | 28.56633 | -14.56608 | 21569 ft | 419 kts | 57° |
| 2026-04-29 13:46 | 28.58232 | -14.53830 | 21997 ft | 422 kts | 57° |
| 2026-04-29 13:46 | 28.59853 | -14.51011 | 22424 ft | 425 kts | 57° |
| 2026-04-29 13:46 | 28.61470 | -14.48198 | 22854 ft | 427 kts | 57° |
| 2026-04-29 13:47 | 28.63091 | -14.45374 | 23270 ft | 429 kts | 57° |
| 2026-04-29 13:47 | 28.64733 | -14.42513 | 23672 ft | 432 kts | 57° |
| 2026-04-29 13:47 | 28.66378 | -14.39644 | 24057 ft | 435 kts | 57° |
| 2026-04-29 13:47 | 28.68026 | -14.36772 | 24453 ft | 437 kts | 57° |
| 2026-04-29 13:48 | 28.69706 | -14.33839 | 24841 ft | 439 kts | 57° |
| 2026-04-29 13:48 | 28.71368 | -14.30936 | 25196 ft | 442 kts | 57° |
| 2026-04-29 13:48 | 28.73046 | -14.28002 | 25557 ft | 444 kts | 57° |
| 2026-04-29 13:48 | 28.74748 | -14.25023 | 25904 ft | 447 kts | 57° |
| 2026-04-29 13:49 | 28.76427 | -14.22084 | 26247 ft | 449 kts | 57° |
| 2026-04-29 13:49 | 28.78129 | -14.19100 | 26576 ft | 451 kts | 57° |
| 2026-04-29 13:49 | 28.79858 | -14.16068 | 26904 ft | 454 kts | 57° |
| 2026-04-29 13:49 | 28.81576 | -14.13052 | 27212 ft | 456 kts | 57° |
| 2026-04-29 13:50 | 28.83296 | -14.10032 | 27507 ft | 459 kts | 57° |
| 2026-04-29 13:50 | 28.85044 | -14.06960 | 27809 ft | 461 kts | 57° |
| 2026-04-29 13:50 | 28.86803 | -14.03868 | 28095 ft | 463 kts | 57° |
| 2026-04-29 13:50 | 28.88553 | -14.00790 | 28385 ft | 465 kts | 57° |
| 2026-04-29 13:51 | 28.90299 | -13.97715 | 28656 ft | 468 kts | 57° |
| 2026-04-29 13:51 | 28.92074 | -13.94585 | 28936 ft | 470 kts | 57° |
| 2026-04-29 13:51 | 28.93865 | -13.91428 | 29201 ft | 472 kts | 57° |
| 2026-04-29 13:51 | 28.95634 | -13.88304 | 29469 ft | 474 kts | 57° |
| 2026-04-29 13:52 | 28.97417 | -13.85155 | 29727 ft | 476 kts | 57° |
| 2026-04-29 13:52 | 28.99212 | -13.81982 | 29979 ft | 478 kts | 57° |
| 2026-04-29 13:52 | 29.01030 | -13.78763 | 30228 ft | 480 kts | 57° |
| 2026-04-29 13:52 | 29.02841 | -13.75556 | 30486 ft | 482 kts | 57° |
| 2026-04-29 13:53 | 29.04657 | -13.72338 | 30729 ft | 483 kts | 57° |
| 2026-04-29 13:53 | 29.06472 | -13.69118 | 30960 ft | 485 kts | 57° |
| 2026-04-29 13:53 | 29.08314 | -13.65845 | 31200 ft | 487 kts | 57° |
| 2026-04-29 13:53 | 29.10144 | -13.62594 | 31428 ft | 488 kts | 57° |
| 2026-04-29 13:54 | 29.11983 | -13.59322 | 31733 ft | 487 kts | 57° |
| 2026-04-29 13:54 | 29.13794 | -13.56097 | 32045 ft | 486 kts | 57° |
| 2026-04-29 13:54 | 29.15626 | -13.52835 | 32336 ft | 486 kts | 57° |
| 2026-04-29 13:54 | 29.17493 | -13.49627 | 32614 ft | 485 kts | 55° |
| 2026-04-29 13:55 | 29.19424 | -13.46457 | 32894 ft | 484 kts | 54° |
| 2026-04-29 13:55 | 29.21346 | -13.43330 | 33146 ft | 484 kts | 54° |
| 2026-04-29 13:55 | 29.23300 | -13.40154 | 33397 ft | 484 kts | 54° |
| 2026-04-29 13:55 | 29.25225 | -13.37018 | 33643 ft | 484 kts | 54° |
| 2026-04-29 13:56 | 29.27145 | -13.33884 | 33881 ft | 484 kts | 55° |
| 2026-04-29 13:56 | 29.29096 | -13.30693 | 34124 ft | 483 kts | 55° |
| 2026-04-29 13:56 | 29.31009 | -13.27559 | 34321 ft | 484 kts | 54° |
| 2026-04-29 13:56 | 29.32934 | -13.24401 | 34489 ft | 485 kts | 54° |
| 2026-04-29 13:57 | 29.34867 | -13.21229 | 34651 ft | 486 kts | 54° |
| 2026-04-29 13:57 | 29.36804 | -13.18045 | 34832 ft | 486 kts | 54° |
| 2026-04-29 13:57 | 29.38730 | -13.14877 | 35011 ft | 487 kts | 54° |
| 2026-04-29 13:57 | 29.40672 | -13.11682 | 35174 ft | 487 kts | 54° |
| 2026-04-29 13:58 | 29.42585 | -13.08531 | 35334 ft | 488 kts | 54° |
| 2026-04-29 13:58 | 29.44532 | -13.05323 | 35481 ft | 488 kts | 54° |
| 2026-04-29 13:58 | 29.46467 | -13.02131 | 35623 ft | 488 kts | 54° |
| 2026-04-29 13:58 | 29.48353 | -12.99017 | 35751 ft | 489 kts | 54° |
| 2026-04-29 13:59 | 29.50292 | -12.95815 | 35884 ft | 489 kts | 54° |
| 2026-04-29 13:59 | 29.52255 | -12.92569 | 35952 ft | 490 kts | 54° |
| 2026-04-29 13:59 | 29.56129 | -12.86155 | 35959 ft | 491 kts | 54° |
| 2026-04-29 14:00 | 29.60038 | -12.79674 | 35959 ft | 491 kts | 54° |
| 2026-04-29 14:00 | 29.63930 | -12.73211 | 35958 ft | 491 kts | 54° |
| 2026-04-29 14:01 | 29.67788 | -12.66790 | 35956 ft | 491 kts | 54° |
| 2026-04-29 14:01 | 29.71666 | -12.60323 | 35952 ft | 491 kts | 54° |
| 2026-04-29 14:02 | 29.75543 | -12.53833 | 35953 ft | 490 kts | 54° |
| 2026-04-29 14:02 | 29.79378 | -12.47353 | 35950 ft | 490 kts | 54° |
| 2026-04-29 14:03 | 29.83186 | -12.40902 | 35950 ft | 489 kts | 54° |
| 2026-04-29 14:03 | 29.87025 | -12.34394 | 35946 ft | 490 kts | 55° |
| 2026-04-29 14:04 | 29.90852 | -12.27892 | 35948 ft | 490 kts | 55° |
| 2026-04-29 14:04 | 29.94655 | -12.21419 | 35946 ft | 489 kts | 55° |
| 2026-04-29 14:05 | 29.98484 | -12.14909 | 35948 ft | 489 kts | 54° |
| 2026-04-29 14:05 | 30.02679 | -12.08768 | 35944 ft | 488 kts | 46° |
| 2026-04-29 14:06 | 30.07413 | -12.03221 | 35948 ft | 486 kts | 42° |
| 2026-04-29 14:06 | 30.12312 | -11.97785 | 35939 ft | 485 kts | 41° |
| 2026-04-29 14:07 | 30.17157 | -11.92388 | 35942 ft | 485 kts | 42° |
| 2026-04-29 14:07 | 30.21976 | -11.86990 | 35938 ft | 485 kts | 42° |
| 2026-04-29 14:08 | 30.26820 | -11.81549 | 35941 ft | 485 kts | 42° |
| 2026-04-29 14:08 | 30.31664 | -11.76099 | 35940 ft | 485 kts | 42° |
| 2026-04-29 14:09 | 30.36482 | -11.70666 | 35948 ft | 485 kts | 42° |
| 2026-04-29 14:09 | 30.41328 | -11.65197 | 35949 ft | 484 kts | 42° |
| 2026-04-29 14:10 | 30.46159 | -11.59736 | 35951 ft | 483 kts | 41° |
| 2026-04-29 14:10 | 30.50948 | -11.54315 | 35953 ft | 483 kts | 42° |
| 2026-04-29 14:11 | 30.55749 | -11.48872 | 35948 ft | 483 kts | 42° |
| 2026-04-29 14:11 | 30.60551 | -11.43419 | 35949 ft | 483 kts | 41° |
| 2026-04-29 14:12 | 30.65343 | -11.37971 | 35949 ft | 483 kts | 42° |
| 2026-04-29 14:12 | 30.70151 | -11.32496 | 35943 ft | 483 kts | 42° |
| 2026-04-29 14:13 | 30.74951 | -11.27021 | 35943 ft | 482 kts | 42° |
| 2026-04-29 14:13 | 30.79739 | -11.21554 | 35945 ft | 481 kts | 42° |
| 2026-04-29 14:14 | 30.84499 | -11.16110 | 35952 ft | 482 kts | 42° |
| 2026-04-29 14:14 | 30.89272 | -11.10643 | 35957 ft | 482 kts | 42° |
| 2026-04-29 14:15 | 30.94038 | -11.05175 | 35957 ft | 482 kts | 42° |
| 2026-04-29 14:15 | 30.98834 | -10.99666 | 35960 ft | 482 kts | 42° |
| 2026-04-29 14:16 | 31.03667 | -10.94105 | 35953 ft | 481 kts | 42° |
| 2026-04-29 14:16 | 31.08442 | -10.88604 | 35949 ft | 481 kts | 42° |
| 2026-04-29 14:17 | 31.13239 | -10.83066 | 35942 ft | 480 kts | 42° |
| 2026-04-29 14:17 | 31.18031 | -10.77528 | 35937 ft | 480 kts | 42° |
| 2026-04-29 14:18 | 31.22800 | -10.72010 | 35939 ft | 480 kts | 42° |
| 2026-04-29 14:18 | 31.27570 | -10.66481 | 35943 ft | 484 kts | 42° |
| 2026-04-29 14:19 | 31.32390 | -10.60886 | 35938 ft | 490 kts | 42° |
| 2026-04-29 14:19 | 31.37224 | -10.55266 | 35935 ft | 492 kts | 42° |
| 2026-04-29 14:20 | 31.42067 | -10.49623 | 35937 ft | 492 kts | 42° |
| 2026-04-29 14:20 | 31.46907 | -10.43980 | 35939 ft | 491 kts | 43° |
| 2026-04-29 14:21 | 31.51761 | -10.38310 | 35940 ft | 490 kts | 43° |
| 2026-04-29 14:21 | 31.56607 | -10.32640 | 35936 ft | 491 kts | 43° |
| 2026-04-29 14:22 | 31.61453 | -10.26961 | 35938 ft | 491 kts | 43° |
| 2026-04-29 14:22 | 31.66279 | -10.21298 | 35940 ft | 491 kts | 43° |
| 2026-04-29 14:23 | 31.71098 | -10.15631 | 35937 ft | 490 kts | 43° |
| 2026-04-29 14:23 | 31.75910 | -10.09966 | 35941 ft | 491 kts | 43° |
| 2026-04-29 14:24 | 31.80726 | -10.04287 | 35942 ft | 490 kts | 43° |
| 2026-04-29 14:24 | 31.85534 | -9.98610 | 35945 ft | 490 kts | 43° |
| 2026-04-29 14:25 | 31.90335 | -9.92930 | 35939 ft | 489 kts | 43° |
| 2026-04-29 14:25 | 31.95147 | -9.87232 | 35929 ft | 490 kts | 44° |
| 2026-04-29 14:26 | 31.99945 | -9.81539 | 35939 ft | 490 kts | 44° |
| 2026-04-29 14:26 | 32.04755 | -9.75821 | 35933 ft | 489 kts | 44° |
| 2026-04-29 14:27 | 32.09508 | -9.70161 | 35933 ft | 489 kts | 44° |
| 2026-04-29 14:28 | 32.16719 | -9.61562 | 35929 ft | 489 kts | 44° |
| 2026-04-29 14:28 | 32.21498 | -9.55849 | 35926 ft | 490 kts | 44° |
| 2026-04-29 14:29 | 32.26279 | -9.50126 | 35927 ft | 490 kts | 44° |
| 2026-04-29 14:29 | 32.31063 | -9.44390 | 35930 ft | 490 kts | 44° |
| 2026-04-29 14:30 | 32.35864 | -9.38625 | 35925 ft | 490 kts | 44° |
| 2026-04-29 14:30 | 32.40635 | -9.32888 | 35918 ft | 490 kts | 44° |
| 2026-04-29 14:31 | 32.45444 | -9.27095 | 35924 ft | 490 kts | 45° |
| 2026-04-29 14:31 | 32.50238 | -9.21307 | 35920 ft | 491 kts | 45° |
| 2026-04-29 14:32 | 32.55027 | -9.15518 | 35920 ft | 490 kts | 45° |
| 2026-04-29 14:32 | 32.59839 | -9.09693 | 35920 ft | 491 kts | 45° |
| 2026-04-29 14:33 | 32.64602 | -9.03916 | 35919 ft | 491 kts | 44° |
| 2026-04-29 14:33 | 32.69378 | -8.98116 | 35919 ft | 491 kts | 44° |
| 2026-04-29 14:34 | 32.74146 | -8.92318 | 35920 ft | 491 kts | 44° |
| 2026-04-29 14:34 | 32.78923 | -8.86496 | 35919 ft | 492 kts | 44° |
| 2026-04-29 14:35 | 32.83698 | -8.80669 | 35919 ft | 492 kts | 45° |
| 2026-04-29 14:35 | 32.88494 | -8.74805 | 35919 ft | 493 kts | 45° |
| 2026-04-29 14:36 | 32.93265 | -8.68962 | 35918 ft | 493 kts | 45° |
| 2026-04-29 14:36 | 32.98043 | -8.63101 | 35914 ft | 493 kts | 45° |
| 2026-04-29 14:37 | 33.02840 | -8.57203 | 35917 ft | 492 kts | 45° |
| 2026-04-29 14:37 | 33.07609 | -8.51330 | 35916 ft | 494 kts | 45° |
| 2026-04-29 14:38 | 33.12376 | -8.45452 | 35913 ft | 493 kts | 45° |
| 2026-04-29 14:38 | 33.17268 | -8.39605 | 35913 ft | 493 kts | 41° |
| 2026-04-29 14:39 | 33.22574 | -8.34446 | 35913 ft | 492 kts | 34° |
| 2026-04-29 14:39 | 33.28294 | -8.29972 | 35911 ft | 491 kts | 30° |
| 2026-04-29 14:40 | 33.34121 | -8.25622 | 35908 ft | 492 kts | 30° |
| 2026-04-29 14:40 | 33.39961 | -8.21241 | 35899 ft | 493 kts | 30° |
| 2026-04-29 14:41 | 33.45758 | -8.16867 | 35902 ft | 493 kts | 30° |
| 2026-04-29 14:41 | 33.51566 | -8.12471 | 35902 ft | 493 kts | 30° |
| 2026-04-29 14:42 | 33.57366 | -8.08074 | 35905 ft | 493 kts | 30° |
| 2026-04-29 14:42 | 33.63189 | -8.03653 | 35906 ft | 494 kts | 30° |
| 2026-04-29 14:43 | 33.68993 | -7.99238 | 35915 ft | 495 kts | 30° |
| 2026-04-29 14:43 | 33.74808 | -7.94807 | 35922 ft | 495 kts | 30° |
| 2026-04-29 14:44 | 33.79679 | -7.91091 | 35926 ft | 495 kts | 30° |